createdAt,value
2023-04-02T00:00:11.974Z,96576.38
2023-04-02T00:03:08.704Z,96577.45
2023-04-02T00:05:37.275Z,96581.18
2023-04-02T00:08:19.595Z,96580.52
2023-04-02T00:11:00.962Z,96578.45
2023-04-02T00:13:34.586Z,96577.13
2023-04-02T00:16:06.830Z,96577.75
2023-04-02T00:18:40.688Z,96575.70
2023-04-02T00:21:17.378Z,96576.40
2023-04-02T00:23:45.903Z,96579.52
2023-04-02T00:26:43.525Z,96578.45
2023-04-02T00:29:13.695Z,96576.48
2023-04-02T00:31:45.045Z,96577.63
2023-04-02T00:34:25.880Z,96575.69
2023-04-02T00:36:54.494Z,96579.92
2023-04-02T00:39:25.906Z,96577.23
2023-04-02T00:42:05.287Z,96577.59
2023-04-02T00:44:38.593Z,96577.89
2023-04-02T00:47:20.338Z,96579.86
2023-04-02T00:49:54.336Z,96581.31
2023-04-02T00:52:27.978Z,96584.98
2023-04-02T00:55:01.331Z,96586.79
2023-04-02T00:57:29.759Z,96587.89
2023-04-02T01:00:22.976Z,96589.61
2023-04-02T01:03:28.749Z,96593.15
2023-04-02T01:06:03.694Z,96592.08
2023-04-02T01:08:34.851Z,96590.25
2023-04-02T01:11:34.874Z,96588.66
2023-04-02T01:14:12.244Z,96592.36
2023-04-02T01:16:46.758Z,96595.84
2023-04-02T01:19:27.514Z,96598.39
2023-04-02T01:22:05.240Z,96599.98
2023-04-02T01:24:37.438Z,96602.80
2023-04-02T01:27:16.593Z,96608.16
2023-04-02T01:29:56.767Z,96614.67
2023-04-02T01:32:28.356Z,96613.56
2023-04-02T01:34:58.450Z,96613.02
2023-04-02T01:37:32.755Z,96617.52
2023-04-02T01:40:06.559Z,96616.20
2023-04-02T01:42:34.791Z,96616.73
2023-04-02T01:45:09.120Z,96617.34
2023-04-02T01:47:38.978Z,96620.20
2023-04-02T01:50:25.829Z,96614.21
2023-04-02T01:52:57.310Z,96614.65
2023-04-02T01:55:33.654Z,96617.66
2023-04-02T01:58:04.012Z,96618.76
2023-04-02T02:00:34.684Z,96619.17
2023-04-02T02:03:03.969Z,96621.89
2023-04-02T02:05:32.950Z,96626.27
2023-04-02T02:08:02.193Z,96627.02
2023-04-02T02:10:38.998Z,96628.37
2023-04-02T02:13:07.291Z,96626.35
2023-04-02T02:15:36.574Z,96626.41
2023-04-02T02:18:06.935Z,96626.60
2023-04-02T02:20:36.295Z,96626.73
2023-04-02T02:23:05.646Z,96625.95
2023-04-02T02:25:36.473Z,96627.98
2023-04-02T02:28:21.269Z,96633.83
2023-04-02T02:30:54.358Z,96634.14
2023-04-02T02:33:47.737Z,96633.44
2023-04-02T02:36:25.121Z,96634.50
2023-04-02T02:39:03.764Z,96631.61
2023-04-02T02:41:56.389Z,96634.88
2023-04-02T02:44:29.397Z,96638.05
2023-04-02T02:47:04.561Z,96635.94
2023-04-02T02:49:36.454Z,96638.32
2023-04-02T02:52:08.803Z,96644.60
2023-04-02T02:55:01.281Z,96643.85
2023-04-02T02:57:37.654Z,96644.64
2023-04-02T03:00:10.075Z,96646.13
2023-04-02T03:02:40.627Z,96645.66
2023-04-02T03:05:16.177Z,96650.95
2023-04-02T03:07:44.970Z,96653.27
2023-04-02T03:10:42.921Z,96654.59
2023-04-02T03:13:26.670Z,96659.34
2023-04-02T03:16:07.394Z,96662.86
2023-04-02T03:18:59.581Z,96660.96
2023-04-02T03:21:39.689Z,96660.55
2023-04-02T03:24:37.499Z,96663.09
2023-04-02T03:27:37.363Z,96665.70
2023-04-02T03:30:37.243Z,96665.31
2023-04-02T03:33:58.870Z,96666.34
2023-04-02T03:36:52.229Z,96669.54
2023-04-02T03:39:31.350Z,96671.73
2023-04-02T03:42:07.000Z,96674.21
2023-04-02T03:45:15.626Z,96679.05
2023-04-02T03:48:13.081Z,96681.02
2023-04-02T03:50:52.590Z,96686.85
2023-04-02T03:53:25.209Z,96688.09
2023-04-02T03:55:55.916Z,96692.23
2023-04-02T03:58:42.146Z,96693.23
2023-04-02T04:01:23.718Z,96693.64
2023-04-02T04:04:02.009Z,96700.65
2023-04-02T04:06:33.690Z,96698.67
2023-04-02T04:09:11.485Z,96702.88
2023-04-02T04:11:46.251Z,96709.13
2023-04-02T04:14:19.509Z,96705.56
2023-04-02T04:17:04.552Z,96709.34
2023-04-02T04:19:45.741Z,96710.88
2023-04-02T04:22:30.692Z,96714.35
2023-04-02T04:25:07.682Z,96717.02
2023-04-02T04:27:58.469Z,96719.59
2023-04-02T04:30:44.150Z,96719.73
2023-04-02T04:33:22.712Z,96720.49
2023-04-02T04:36:03.726Z,96720.12
2023-04-02T04:38:39.727Z,96719.73
2023-04-02T04:41:19.595Z,96723.85
2023-04-02T04:43:51.327Z,96724.00
2023-04-02T04:46:31.224Z,96725.37
2023-04-02T04:49:12.399Z,96727.85
2023-04-02T04:51:56.425Z,96730.76
2023-04-02T04:54:27.907Z,96734.84
2023-04-02T04:57:01.872Z,96734.52
2023-04-02T04:59:36.516Z,96735.42
2023-04-02T05:02:19.848Z,96743.33
2023-04-02T05:04:51.975Z,96746.97
2023-04-02T05:07:37.048Z,96749.55
2023-04-02T05:10:14.739Z,96749.52
2023-04-02T05:12:54.682Z,96752.45
2023-04-02T05:15:32.517Z,96756.94
2023-04-02T05:18:44.483Z,96758.77
2023-04-02T05:21:19.749Z,96760.33
2023-04-02T05:23:51.579Z,96761.29
2023-04-02T05:26:29.577Z,96761.65
2023-04-02T05:29:16.327Z,96763.59
2023-04-02T05:31:54.650Z,96769.56
2023-04-02T05:34:33.537Z,96769.34
2023-04-02T05:37:02.587Z,96772.38
2023-04-02T05:39:32.889Z,96773.19
2023-04-02T05:42:08.451Z,96771.44
2023-04-02T05:45:07.184Z,96772.27
2023-04-02T05:47:41.308Z,96775.06
2023-04-02T05:50:25.464Z,96777.14
2023-04-02T05:53:09.383Z,96781.39
2023-04-02T05:55:49.128Z,96781.39
2023-04-02T05:58:37.028Z,96779.70
2023-04-02T06:01:45.589Z,96784.92
2023-04-02T06:04:47.051Z,96782.77
2023-04-02T06:07:23.129Z,96784.52
2023-04-02T06:10:29.283Z,96791.16
2023-04-02T06:13:03.741Z,96794.65
2023-04-02T06:15:38.002Z,96796.14
2023-04-02T06:18:20.207Z,96799.36
2023-04-02T06:20:49.902Z,96797.64
2023-04-02T06:23:23.445Z,96798.23
2023-04-02T06:26:00.793Z,96799.31
2023-04-02T06:28:42.269Z,96803.26
2023-04-02T06:31:27.871Z,96806.84
2023-04-02T06:33:57.177Z,96811.67
2023-04-02T06:36:28.747Z,96814.95
2023-04-02T06:39:07.941Z,96816.21
2023-04-02T06:41:36.838Z,96811.55
2023-04-02T06:44:28.310Z,96814.73
2023-04-02T06:47:11.931Z,96813.05
2023-04-02T06:49:48.388Z,96812.39
2023-04-02T06:52:26.972Z,96814.62
2023-04-02T06:54:55.418Z,96815.98
2023-04-02T06:57:25.287Z,96816.05
2023-04-02T06:59:54.728Z,96819.05
2023-04-02T07:02:35.555Z,96819.26
2023-04-02T07:05:11.851Z,96823.58
2023-04-02T07:07:46.109Z,96816.30
2023-04-02T07:10:15.726Z,96814.84
2023-04-02T07:12:43.946Z,96818.52
2023-04-02T07:15:19.998Z,96823.27
2023-04-02T07:17:49.042Z,96830.31
2023-04-02T07:20:38.953Z,96831.11
2023-04-02T07:23:10.443Z,96830.45
2023-04-02T07:25:38.468Z,96832.61
2023-04-02T07:28:06.712Z,96837.32
2023-04-02T07:30:35.547Z,96838.48
2023-04-02T07:33:03.717Z,96841.02
2023-04-02T07:35:32.178Z,96843.16
2023-04-02T07:38:00.553Z,96846.30
2023-04-02T07:40:28.632Z,96847.25
2023-04-02T07:42:56.898Z,96848.98
2023-04-02T07:45:24.968Z,96853.88
2023-04-02T07:47:53.906Z,96859.38
2023-04-02T07:50:23.036Z,96862.08
2023-04-02T07:52:51.106Z,96860.20
2023-04-02T07:55:19.084Z,96862.80
2023-04-02T07:57:52.615Z,96861.69
2023-04-02T08:00:23.102Z,96860.65
2023-04-02T08:02:52.824Z,96861.58
2023-04-02T08:05:20.992Z,96860.81
2023-04-02T08:07:56.229Z,96863.35
2023-04-02T08:10:25.097Z,96868.41
2023-04-02T08:12:53.496Z,96868.15
2023-04-02T08:15:21.873Z,96862.33
2023-04-02T08:17:50.006Z,96863.75
2023-04-02T08:20:22.941Z,96866.29
2023-04-02T08:22:51.224Z,96866.02
2023-04-02T08:25:19.572Z,96866.39
2023-04-02T08:27:48.798Z,96862.14
2023-04-02T08:30:18.189Z,96862.16
2023-04-02T08:32:46.545Z,96866.45
2023-04-02T08:35:16.913Z,96866.50
2023-04-02T08:37:45.174Z,96867.44
2023-04-02T08:40:23.218Z,96869.13
2023-04-02T08:43:22.343Z,96867.06
2023-04-02T08:46:00.625Z,96871.24
2023-04-02T08:48:32.725Z,96873.66
2023-04-02T08:51:02.769Z,96877.27
2023-04-02T08:53:35.074Z,96878.14
2023-04-02T08:56:18.000Z,96877.75
2023-04-02T08:58:54.438Z,96879.14
2023-04-02T09:01:41.737Z,96880.54
2023-04-02T09:04:23.390Z,96880.84
2023-04-02T09:06:55.516Z,96883.16
2023-04-02T09:09:25.060Z,96887.13
2023-04-02T09:11:55.024Z,96889.08
2023-04-02T09:14:58.789Z,96889.29
2023-04-02T09:17:27.630Z,96894.69
2023-04-02T09:20:17.381Z,96892.65
2023-04-02T09:22:48.627Z,96894.72
2023-04-02T09:25:22.125Z,96889.65
2023-04-02T09:27:53.344Z,96889.20
2023-04-02T09:31:02.311Z,96889.73
2023-04-02T09:33:51.002Z,96894.46
2023-04-02T09:36:19.050Z,96901.08
2023-04-02T09:39:07.387Z,96903.92
2023-04-02T09:41:37.200Z,96905.77
2023-04-02T09:44:26.282Z,96900.99
2023-04-02T09:47:00.295Z,96901.73
2023-04-02T09:49:34.959Z,96904.70
2023-04-02T09:52:18.156Z,96901.41
2023-04-02T09:55:06.088Z,96903.70
2023-04-02T09:57:34.242Z,96903.77
2023-04-02T10:00:32.243Z,96902.48
2023-04-02T10:03:33.242Z,96902.87
2023-04-02T10:06:16.464Z,96907.21
2023-04-02T10:08:45.698Z,96904.63
2023-04-02T10:11:20.081Z,96907.34
2023-04-02T10:14:12.227Z,96906.80
2023-04-02T10:16:58.217Z,96909.86
2023-04-02T10:19:41.085Z,96909.80
2023-04-02T10:22:21.083Z,96909.82
2023-04-02T10:24:50.790Z,96909.42
2023-04-02T10:27:26.328Z,96910.88
2023-04-02T10:30:40.276Z,96910.47
2023-04-02T10:33:20.230Z,96909.05
2023-04-02T10:35:51.061Z,96908.13
2023-04-02T10:38:28.322Z,96908.34
2023-04-02T10:41:05.666Z,96909.20
2023-04-02T10:43:47.085Z,96902.55
2023-04-02T10:46:24.472Z,96898.91
2023-04-02T10:49:12.463Z,96903.64
2023-04-02T10:51:56.291Z,96901.03
2023-04-02T10:54:46.586Z,96900.52
2023-04-02T10:57:26.959Z,96904.27
2023-04-02T11:00:08.270Z,96903.41
2023-04-02T11:03:00.244Z,96907.32
2023-04-02T11:05:32.964Z,96905.21
2023-04-02T11:08:07.781Z,96907.88
2023-04-02T11:10:40.723Z,96906.27
2023-04-02T11:13:29.110Z,96907.52
2023-04-02T11:15:57.321Z,96903.17
2023-04-02T11:18:36.130Z,96903.50
2023-04-02T11:21:25.829Z,96905.61
2023-04-02T11:24:03.903Z,96906.63
2023-04-02T11:26:41.315Z,96906.30
2023-04-02T11:29:19.396Z,96903.30
2023-04-02T11:31:49.718Z,96904.02
2023-04-02T11:34:49.552Z,96908.90
2023-04-02T11:37:45.838Z,96908.09
2023-04-02T11:40:14.171Z,96905.73
2023-04-02T11:42:50.583Z,96904.41
2023-04-02T11:45:21.644Z,96907.01
2023-04-02T11:48:13.159Z,96905.33
2023-04-02T11:50:44.193Z,96908.83
2023-04-02T11:53:12.343Z,96912.59
2023-04-02T11:55:43.026Z,96914.80
2023-04-02T11:58:22.966Z,96912.77
2023-04-02T12:01:15.788Z,96919.92
2023-04-02T12:04:21.423Z,96922.70
2023-04-02T12:06:49.611Z,96921.80
2023-04-02T12:09:24.136Z,96920.23
2023-04-02T12:11:54.972Z,96921.70
2023-04-02T12:14:38.278Z,96922.71
2023-04-02T12:17:18.892Z,96923.14
2023-04-02T12:19:53.097Z,96924.66
2023-04-02T12:22:28.090Z,96926.14
2023-04-02T12:25:00.589Z,96923.07
2023-04-02T12:27:30.283Z,96924.53
2023-04-02T12:30:18.848Z,96927.84
2023-04-02T12:32:48.014Z,96929.67
2023-04-02T12:35:29.404Z,96927.44
2023-04-02T12:37:58.163Z,96929.25
2023-04-02T12:40:27.320Z,96925.48
2023-04-02T12:42:55.585Z,96924.91
2023-04-02T12:45:29.333Z,96927.59
2023-04-02T12:47:58.521Z,96926.68
2023-04-02T12:50:26.856Z,96924.73
2023-04-02T12:52:58.426Z,96923.30
2023-04-02T12:55:27.507Z,96920.30
2023-04-02T12:57:57.665Z,96920.85
2023-04-02T13:00:25.799Z,96919.21
2023-04-02T13:03:06.234Z,96919.85
2023-04-02T13:05:39.718Z,96918.75
2023-04-02T13:08:17.489Z,96919.16
2023-04-02T13:10:52.142Z,96914.34
2023-04-02T13:13:27.991Z,96913.38
2023-04-02T13:16:02.934Z,96915.98
2023-04-02T13:18:33.497Z,96919.39
2023-04-02T13:21:07.098Z,96923.54
2023-04-02T13:23:37.795Z,96923.38
2023-04-02T13:26:08.773Z,96925.02
2023-04-02T13:28:37.668Z,96925.55
2023-04-02T13:31:05.878Z,96927.05
2023-04-02T13:33:34.043Z,96917.94
2023-04-02T13:36:02.320Z,96923.80
2023-04-02T13:38:30.434Z,96921.08
2023-04-02T13:40:58.832Z,96919.15
2023-04-02T13:43:26.900Z,96924.34
2023-04-02T13:45:58.386Z,96922.58
2023-04-02T13:48:28.985Z,96923.23
2023-04-02T13:50:57.160Z,96922.86
2023-04-02T13:53:32.835Z,96924.98
2023-04-02T13:56:01.101Z,96924.45
2023-04-02T13:58:29.075Z,96928.08
2023-04-02T14:00:57.342Z,96928.86
2023-04-02T14:03:26.026Z,96929.86
2023-04-02T14:06:24.230Z,96930.22
2023-04-02T14:09:22.068Z,96928.83
2023-04-02T14:11:59.045Z,96930.20
2023-04-02T14:15:00.721Z,96925.41
2023-04-02T14:17:37.505Z,96925.84
2023-04-02T14:20:13.650Z,96926.48
2023-04-02T14:22:41.637Z,96933.02
2023-04-02T14:25:47.766Z,96933.02
2023-04-02T14:28:38.199Z,96934.91
2023-04-02T14:31:34.129Z,96932.23
2023-04-02T14:34:38.913Z,96929.49
2023-04-02T14:37:18.159Z,96931.21
2023-04-02T14:40:05.699Z,96929.84
2023-04-02T14:42:36.611Z,96930.05
2023-04-02T14:45:24.850Z,96931.69
2023-04-02T14:48:03.450Z,96931.87
2023-04-02T14:50:38.924Z,96931.08
2023-04-02T14:53:18.560Z,96927.60
2023-04-02T14:55:49.515Z,96926.75
2023-04-02T14:58:29.717Z,96929.43
2023-04-02T15:01:36.849Z,96931.13
2023-04-02T15:04:11.062Z,96930.58
2023-04-02T15:06:47.696Z,96931.40
2023-04-02T15:09:24.085Z,96934.87
2023-04-02T15:11:56.811Z,96937.98
2023-04-02T15:14:33.552Z,96939.08
2023-04-02T15:17:01.645Z,96936.25
2023-04-02T15:19:30.052Z,96935.10
2023-04-02T15:22:32.370Z,96938.05
2023-04-02T15:25:18.561Z,96935.71
2023-04-02T15:28:07.368Z,96935.03
2023-04-02T15:30:44.295Z,96930.58
2023-04-02T15:33:33.986Z,96933.98
2023-04-02T15:36:14.760Z,96939.83
2023-04-02T15:38:52.445Z,96940.98
2023-04-02T15:41:32.237Z,96943.05
2023-04-02T15:44:13.257Z,96950.05
2023-04-02T15:47:12.151Z,96954.48
2023-04-02T15:49:56.943Z,96959.23
2023-04-02T15:52:34.301Z,96970.17
2023-04-02T15:55:24.572Z,96969.27
2023-04-02T15:58:10.379Z,96971.14
2023-04-02T16:01:03.039Z,96977.19
2023-04-02T16:03:43.270Z,96982.21
2023-04-02T16:06:43.846Z,96981.41
2023-04-02T16:09:34.357Z,96986.25
2023-04-02T16:12:15.940Z,96992.92
2023-04-02T16:14:47.762Z,96998.00
2023-04-02T16:17:26.412Z,96996.77
2023-04-02T16:20:15.854Z,96999.84
2023-04-02T16:23:00.108Z,97006.60
2023-04-02T16:25:39.089Z,97006.51
2023-04-02T16:28:22.119Z,97004.66
2023-04-02T16:31:02.711Z,97000.75
2023-04-02T16:33:56.899Z,97007.54
2023-04-02T16:36:43.017Z,97015.58
2023-04-02T16:39:36.761Z,97018.34
2023-04-02T16:42:25.102Z,97016.92
2023-04-02T16:45:19.361Z,97024.45
2023-04-02T16:47:59.407Z,97029.39
2023-04-02T16:51:11.145Z,97026.04
2023-04-02T16:54:02.321Z,97033.52
2023-04-02T16:56:52.520Z,97037.91
2023-04-02T16:59:29.735Z,97039.01
2023-04-02T17:02:13.117Z,97039.17
2023-04-02T17:05:08.672Z,97037.71
2023-04-02T17:07:53.021Z,97044.59
2023-04-02T17:10:31.764Z,97045.17
2023-04-02T17:13:19.167Z,97043.14
2023-04-02T17:15:59.474Z,97040.41
2023-04-02T17:18:27.727Z,97044.39
2023-04-02T17:21:09.011Z,97045.61
2023-04-02T17:24:01.973Z,97048.68
2023-04-02T17:26:34.940Z,97047.35
2023-04-02T17:29:09.264Z,97046.86
2023-04-02T17:31:40.874Z,97040.84
2023-04-02T17:34:22.813Z,97046.77
2023-04-02T17:37:06.316Z,97040.46
2023-04-02T17:40:00.703Z,97044.55
2023-04-02T17:42:38.093Z,97055.58
2023-04-02T17:45:34.604Z,97060.39
2023-04-02T17:48:09.439Z,97066.91
2023-04-02T17:50:44.085Z,97073.23
2023-04-02T17:53:22.912Z,97072.70
2023-04-02T17:56:09.841Z,97077.06
2023-04-02T17:59:05.739Z,97082.18
2023-04-02T18:01:40.879Z,97082.03
2023-04-02T18:04:24.109Z,97087.91
2023-04-02T18:07:12.092Z,97092.98
2023-04-02T18:09:49.592Z,97093.15
2023-04-02T18:12:23.476Z,97094.50
2023-04-02T18:15:10.456Z,97095.22
2023-04-02T18:17:51.702Z,97103.36
2023-04-02T18:20:27.904Z,97106.23
2023-04-02T18:23:08.452Z,97109.44
2023-04-02T18:26:27.937Z,97109.72
2023-04-02T18:29:19.554Z,97112.11
2023-04-02T18:31:57.824Z,97114.42
2023-04-02T18:34:50.302Z,97115.44
2023-04-02T18:37:47.793Z,97116.22
2023-04-02T18:40:35.907Z,97121.47
2023-04-02T18:43:19.281Z,97125.80
2023-04-02T18:46:22.584Z,97131.18
2023-04-02T18:49:15.554Z,97136.24
2023-04-02T18:51:44.359Z,97139.25
2023-04-02T18:54:43.382Z,97141.20
2023-04-02T18:57:20.665Z,97146.55
2023-04-02T19:00:23.745Z,97146.15
2023-04-02T19:03:13.802Z,97144.55
2023-04-02T19:05:49.806Z,97147.89
2023-04-02T19:08:28.306Z,97148.13
2023-04-02T19:11:06.935Z,97151.59
2023-04-02T19:13:35.619Z,97153.98
2023-04-02T19:16:09.888Z,97153.05
2023-04-02T19:19:03.390Z,97158.00
2023-04-02T19:21:50.406Z,97159.27
2023-04-02T19:24:52.466Z,97161.08
2023-04-02T19:27:58.351Z,97166.92
2023-04-02T19:31:09.088Z,97176.52
2023-04-02T19:33:57.344Z,97187.61
2023-04-02T19:37:04.836Z,97197.30
2023-04-02T19:39:46.977Z,97194.95
2023-04-02T19:42:41.844Z,97193.18
2023-04-02T19:45:39.410Z,97199.30
2023-04-02T19:48:14.003Z,97203.64
2023-04-02T19:50:42.273Z,97202.33
2023-04-02T19:53:10.773Z,97208.16
2023-04-02T19:55:41.208Z,97207.91
2023-04-02T19:58:24.740Z,97208.88
2023-04-02T20:00:53.029Z,97210.33
2023-04-02T20:03:21.706Z,97214.78
2023-04-02T20:05:49.800Z,97215.35
2023-04-02T20:08:18.252Z,97218.96
2023-04-02T20:10:46.636Z,97218.51
2023-04-02T20:13:14.715Z,97216.16
2023-04-02T20:15:42.988Z,97217.09
2023-04-02T20:18:11.684Z,97222.19
2023-04-02T20:20:39.961Z,97226.87
2023-04-02T20:23:08.389Z,97231.06
2023-04-02T20:25:36.724Z,97235.20
2023-04-02T20:28:04.877Z,97233.93
2023-04-02T20:30:33.266Z,97231.81
2023-04-02T20:33:02.439Z,97230.77
2023-04-02T20:35:34.596Z,97234.21
2023-04-02T20:38:06.578Z,97236.39
2023-04-02T20:40:35.436Z,97239.61
2023-04-02T20:43:03.847Z,97240.35
2023-04-02T20:45:32.538Z,97241.58
2023-04-02T20:48:00.862Z,97243.67
2023-04-02T20:50:29.691Z,97239.79
2023-04-02T20:52:58.832Z,97234.41
2023-04-02T20:55:26.881Z,97236.05
2023-04-02T20:57:55.132Z,97234.60
2023-04-02T21:00:23.502Z,97229.65
2023-04-02T21:02:51.820Z,97233.38
2023-04-02T21:05:20.134Z,97239.48
2023-04-02T21:07:49.456Z,97237.11
2023-04-02T21:10:17.526Z,97236.10
2023-04-02T21:12:45.909Z,97234.48
2023-04-02T21:15:13.979Z,97238.30
2023-04-02T21:17:42.500Z,97238.50
2023-04-02T21:20:12.117Z,97236.05
2023-04-02T21:22:40.952Z,97237.13
2023-04-02T21:25:09.532Z,97238.44
2023-04-02T21:27:37.814Z,97230.65
2023-04-02T21:30:06.708Z,97232.70
2023-04-02T21:32:35.015Z,97231.79
2023-04-02T21:35:03.306Z,97231.70
2023-04-02T21:37:31.416Z,97230.54
2023-04-02T21:39:59.588Z,97235.84
2023-04-02T21:42:27.973Z,97232.60
2023-04-02T21:44:56.545Z,97233.48
2023-04-02T21:47:25.142Z,97233.98
2023-04-02T21:49:53.374Z,97234.11
2023-04-02T21:52:21.582Z,97233.73
2023-04-02T21:54:49.689Z,97230.07
2023-04-02T21:57:18.945Z,97232.41
2023-04-02T21:59:47.226Z,97233.00
2023-04-02T22:02:16.222Z,97233.41
2023-04-02T22:04:45.224Z,97233.00
2023-04-02T22:07:13.315Z,97235.44
2023-04-02T22:09:41.969Z,97231.70
2023-04-02T22:12:09.943Z,97231.20
2023-04-02T22:14:38.028Z,97230.71
2023-04-02T22:17:07.583Z,97231.67
2023-04-02T22:19:35.960Z,97230.92
2023-04-02T22:22:04.263Z,97228.42
2023-04-02T22:24:32.336Z,97231.53
2023-04-02T22:27:00.820Z,97230.21
2023-04-02T22:29:28.855Z,97233.93
2023-04-02T22:31:57.144Z,97235.20
2023-04-02T22:34:25.435Z,97240.55
2023-04-02T22:36:53.627Z,97241.67
2023-04-02T22:39:21.802Z,97243.15
2023-04-02T22:41:49.847Z,97244.92
2023-04-02T22:44:18.006Z,97244.17
2023-04-02T22:46:46.717Z,97245.65
2023-04-02T22:49:19.511Z,97242.46
2023-04-02T22:51:48.069Z,97248.14
2023-04-02T22:54:16.558Z,97244.64
2023-04-02T22:56:44.720Z,97243.65
2023-04-02T22:59:13.101Z,97244.55
2023-04-02T23:01:41.701Z,97249.73
2023-04-02T23:04:09.966Z,97252.33
2023-04-02T23:06:38.140Z,97254.16
2023-04-02T23:09:06.624Z,97257.23
2023-04-02T23:11:35.007Z,97260.93
2023-04-02T23:14:03.368Z,97260.33
2023-04-02T23:16:31.958Z,97258.15
2023-04-02T23:19:00.025Z,97259.08
2023-04-02T23:21:28.135Z,97261.66
2023-04-02T23:23:56.416Z,97262.14
2023-04-02T23:26:30.704Z,97259.57
2023-04-02T23:29:00.867Z,97260.46
2023-04-02T23:31:29.114Z,97253.81
2023-04-02T23:33:57.232Z,97257.44
2023-04-02T23:36:26.779Z,97260.73
2023-04-02T23:38:58.124Z,97262.13
2023-04-02T23:41:27.205Z,97260.55
2023-04-02T23:43:56.337Z,97260.16
2023-04-02T23:46:24.978Z,97260.26
2023-04-02T23:48:54.392Z,97268.02
2023-04-02T23:51:23.295Z,97264.08
2023-04-02T23:53:52.821Z,97266.95
2023-04-02T23:56:22.102Z,97263.20
2023-04-02T23:58:51.170Z,97264.70
